Time;durP1;ratioP1;P1;durP2;ratioP2;P2;SDS_P1;SDS_P2;PMS_P1;PMS_P2;Temp;Humidity;BMP_temperature;BMP_pressure;BME280_temperature;BME280_humidity;BME280_pressure;Samples;Min_cycle;Max_cycle;Signal;HPM_P1;HPM_P2
2022/05/20 00:01:50;;;;;;;;;;;15.40;99.90;;;;;;5053167;28;19916;-72
2022/05/20 00:04:15;;;;;;;;;;;15.40;99.90;;;;;;5053185;28;19913;-72
2022/05/20 00:06:41;;;;;;;;;;;15.50;99.90;;;;;;5053607;28;20464;-72
2022/05/20 00:09:07;;;;;;;;;;;15.50;99.90;;;;;;5053629;28;20301;-74
2022/05/20 00:11:32;;;;;;;;;;;15.40;99.90;;;;;;5053081;28;19920;-72
2022/05/20 00:13:58;;;;;;;;;;;15.40;99.90;;;;;;5052877;28;19955;-72
2022/05/20 00:16:23;;;;;;;;;;;15.40;99.90;;;;;;5053279;28;19915;-72
2022/05/20 00:18:49;;;;;;;;;;;15.40;99.90;;;;;;5053164;28;20285;-73
2022/05/20 00:21:15;;;;;;;;;;;15.40;99.90;;;;;;5059055;28;20271;-72
2022/05/20 00:23:40;;;;;;;;;;;15.30;99.90;;;;;;5052579;28;19909;-72
2022/05/20 00:26:06;;;;;;;;;;;15.40;99.90;;;;;;5053266;28;19909;-72
2022/05/20 00:28:31;;;;;;;;;;;15.40;99.90;;;;;;5053389;28;19909;-74
2022/05/20 00:31:00;;;;;;;;;;;15.30;99.90;;;;;;5053057;28;19912;-72
2022/05/20 00:33:26;;;;;;;;;;;15.20;99.90;;;;;;5052200;28;20362;-72
2022/05/20 00:35:52;;;;;;;;;;;15.20;99.90;;;;;;5052943;28;19908;-72
2022/05/20 00:38:17;;;;;;;;;;;15.30;99.90;;;;;;5053071;28;19913;-74
2022/05/20 00:40:43;;;;;;;;;;;15.20;99.90;;;;;;5052563;28;20402;-72
2022/05/20 00:43:22;;;;;;;;;;;15.10;99.90;;;;;;5051688;28;19909;-72
2022/05/20 00:45:48;;;;;;;;;;;15.10;99.90;;;;;;5052489;28;19920;-74
2022/05/20 00:48:13;;;;;;;;;;;15.10;99.90;;;;;;5052331;28;20362;-72
2022/05/20 00:50:42;;;;;;;;;;;15.00;99.90;;;;;;5052414;28;19920;-72
2022/05/20 00:53:08;;;;;;;;;;;14.90;99.90;;;;;;5051450;28;20027;-74
2022/05/20 00:55:34;;;;;;;;;;;14.90;99.90;;;;;;5052503;28;19935;-72
2022/05/20 00:58:03;;;;;;;;;;;14.80;99.90;;;;;;5051915;28;19909;-72
2022/05/20 01:00:29;;;;;;;;;;;14.70;99.90;;;;;;5052076;28;19921;-72
2022/05/20 01:03:00;;;;;;;;;;;14.70;99.90;;;;;;5051794;28;19954;-72
2022/05/20 01:05:46;;;;;;;;;;;14.80;99.90;;;;;;5051761;28;19916;-73
2022/05/20 01:08:13;;;;;;;;;;;14.80;99.90;;;;;;5052342;28;19970;-72
2022/05/20 01:10:38;;;;;;;;;;;14.70;99.90;;;;;;5052211;28;19962;-75
2022/05/20 01:13:04;;;;;;;;;;;14.60;99.90;;;;;;5051802;28;20331;-72
2022/05/20 01:15:29;;;;;;;;;;;14.50;99.90;;;;;;5051787;28;19913;-72
2022/05/20 01:17:56;;;;;;;;;;;14.50;99.90;;;;;;5052252;28;19919;-72
2022/05/20 01:20:24;;;;;;;;;;;14.50;99.90;;;;;;5060032;28;20358;-72
2022/05/20 01:23:00;;;;;;;;;;;14.50;99.90;;;;;;5051200;28;19915;-72
2022/05/20 01:25:26;;;;;;;;;;;14.50;99.90;;;;;;5051372;28;19948;-72
2022/05/20 01:27:52;;;;;;;;;;;14.40;99.90;;;;;;5051960;28;20369;-72
2022/05/20 01:30:19;;;;;;;;;;;14.40;99.90;;;;;;5051751;28;20027;-72
2022/05/20 01:32:45;;;;;;;;;;;14.40;99.90;;;;;;5051302;28;19909;-73
2022/05/20 01:35:13;;;;;;;;;;;14.40;99.90;;;;;;5051442;28;19916;-72
2022/05/20 01:37:39;;;;;;;;;;;14.30;99.90;;;;;;5051903;28;19909;-74
2022/05/20 01:40:06;;;;;;;;;;;14.30;99.90;;;;;;5051835;28;19912;-72
2022/05/20 01:42:43;;;;;;;;;;;14.20;99.90;;;;;;5051179;28;19948;-73
2022/05/20 01:45:17;;;;;;;;;;;14.10;99.90;;;;;;5050913;28;19935;-75
2022/05/20 01:47:55;;;;;;;;;;;14.20;99.90;;;;;;5048696;28;19909;-73
2022/05/20 01:50:23;;;;;;;;;;;14.10;99.90;;;;;;5047580;28;20003;-72
2022/05/20 01:52:59;;;;;;;;;;;14.10;99.90;;;;;;5049161;28;20028;-72
2022/05/20 01:55:33;;;;;;;;;;;14.10;99.90;;;;;;5050207;28;19916;-72
2022/05/20 01:58:11;;;;;;;;;;;13.90;99.90;;;;;;5050950;28;20393;-73
2022/05/20 02:00:37;;;;;;;;;;;13.90;99.90;;;;;;5050564;28;19913;-72
2022/05/20 02:03:05;;;;;;;;;;;14.00;99.90;;;;;;5050311;28;20003;-72
2022/05/20 02:05:33;;;;;;;;;;;14.00;99.90;;;;;;5050812;28;19920;-72
2022/05/20 02:08:01;;;;;;;;;;;14.00;99.90;;;;;;5050155;28;20393;-72
2022/05/20 02:10:29;;;;;;;;;;;14.00;99.90;;;;;;5050145;28;19964;-72
2022/05/20 02:12:57;;;;;;;;;;;14.10;99.90;;;;;;5060300;28;20381;-72
2022/05/20 02:15:23;;;;;;;;;;;14.10;99.90;;;;;;5052240;28;19916;-72
2022/05/20 02:17:51;;;;;;;;;;;14.00;99.90;;;;;;5050390;28;20301;-72
2022/05/20 02:20:25;;;;;;;;;;;14.00;99.90;;;;;;5054372;28;19913;-72
2022/05/20 02:22:53;;;;;;;;;;;14.00;99.90;;;;;;5067665;28;19908;-72
2022/05/20 02:25:20;;;;;;;;;;;14.00;99.90;;;;;;5069354;28;20427;-72
2022/05/20 02:27:48;;;;;;;;;;;13.90;99.90;;;;;;5069743;28;19908;-75
2022/05/20 02:30:15;;;;;;;;;;;13.80;99.90;;;;;;5069364;28;20016;-72
2022/05/20 02:32:50;;;;;;;;;;;13.80;99.90;;;;;;5069237;28;20293;-73
2022/05/20 02:35:15;;;;;;;;;;;13.70;99.90;;;;;;5069047;28;19909;-72
2022/05/20 02:37:41;;;;;;;;;;;13.70;99.90;;;;;;5069545;28;20289;-72
2022/05/20 02:40:08;;;;;;;;;;;13.80;99.90;;;;;;5069472;28;19916;-72
2022/05/20 02:42:34;;;;;;;;;;;13.80;99.90;;;;;;5069132;28;19995;-72
2022/05/20 02:45:00;;;;;;;;;;;13.90;99.90;;;;;;5068920;28;19943;-72
2022/05/20 02:47:31;;;;;;;;;;;13.90;99.90;;;;;;5063843;28;20310;-72
2022/05/20 02:50:17;;;;;;;;;;;14.00;99.90;;;;;;4986320;28;1795824;-73
2022/05/20 02:52:42;;;;;;;;;;;13.90;99.90;;;;;;5048562;28;19955;-72
2022/05/20 02:55:08;;;;;;;;;;;14.00;99.90;;;;;;5050702;28;19949;-72
2022/05/20 02:57:34;;;;;;;;;;;14.10;99.90;;;;;;5051116;28;20370;-72
2022/05/20 03:05:28;;;;;;;;;;;14.00;99.90;;;;;;5050599;28;19920;-72
2022/05/20 03:07:53;;;;;;;;;;;14.00;99.90;;;;;;5051162;28;19908;-73
2022/05/20 03:10:19;;;;;;;;;;;14.00;99.90;;;;;;5051229;28;20326;-72
2022/05/20 03:12:44;;;;;;;;;;;14.10;99.90;;;;;;5050057;28;19944;-72
2022/05/20 03:15:11;;;;;;;;;;;14.10;99.90;;;;;;5050045;28;19909;-73
2022/05/20 03:17:37;;;;;;;;;;;14.10;99.90;;;;;;5050395;28;19955;-72
2022/05/20 03:20:04;;;;;;;;;;;14.10;99.90;;;;;;5051262;28;19916;-72
2022/05/20 03:22:29;;;;;;;;;;;14.10;99.90;;;;;;5052651;28;19948;-74
2022/05/20 03:24:55;;;;;;;;;;;14.10;99.90;;;;;;5053546;28;20302;-72
2022/05/20 03:27:20;;;;;;;;;;;14.10;99.90;;;;;;5054404;28;19909;-72
2022/05/20 03:29:46;;;;;;;;;;;14.20;99.90;;;;;;5054243;28;19999;-73
2022/05/20 03:32:13;;;;;;;;;;;14.20;99.90;;;;;;5053447;28;19912;-73
2022/05/20 03:34:39;;;;;;;;;;;14.20;99.90;;;;;;5053349;28;19909;-72
2022/05/20 03:37:04;;;;;;;;;;;14.30;99.90;;;;;;5053854;28;19962;-72
2022/05/20 03:39:30;;;;;;;;;;;14.40;99.90;;;;;;5054112;28;19917;-72
2022/05/20 03:41:56;;;;;;;;;;;14.40;99.90;;;;;;5052926;28;19909;-73
2022/05/20 03:44:21;;;;;;;;;;;14.50;99.90;;;;;;5053265;28;19909;-71
2022/05/20 03:46:48;;;;;;;;;;;14.50;99.90;;;;;;5053632;28;19974;-72
2022/05/20 03:49:15;;;;;;;;;;;14.50;99.90;;;;;;5053800;28;19966;-72
2022/05/20 03:51:40;;;;;;;;;;;14.60;99.90;;;;;;5053947;28;20401;-72
2022/05/20 03:54:06;;;;;;;;;;;14.70;99.90;;;;;;5064213;28;19940;-75
2022/05/20 03:56:32;;;;;;;;;;;14.80;99.90;;;;;;5053724;28;19909;-72
2022/05/20 03:58:57;;;;;;;;;;;14.90;99.90;;;;;;5052233;28;19919;-72
2022/05/20 04:04:07;;;;;;;;;;;14.90;99.90;;;;;;5053013;28;20476;-72
2022/05/20 04:06:32;;;;;;;;;;;14.90;99.90;;;;;;5053344;28;19916;-74
2022/05/20 04:08:58;;;;;;;;;;;14.90;99.90;;;;;;5053543;28;19909;-72
2022/05/20 04:11:24;;;;;;;;;;;14.90;99.90;;;;;;5053330;28;19909;-72
2022/05/20 04:13:50;;;;;;;;;;;14.80;99.90;;;;;;5052858;28;19909;-72
2022/05/20 04:16:16;;;;;;;;;;;14.70;99.90;;;;;;5053435;28;19934;-72
2022/05/20 04:18:42;;;;;;;;;;;14.70;99.90;;;;;;5053466;28;19916;-72
2022/05/20 04:21:08;;;;;;;;;;;14.70;99.90;;;;;;5052929;28;20390;-72
2022/05/20 04:23:34;;;;;;;;;;;14.70;99.90;;;;;;5055131;28;19952;-72
2022/05/20 04:25:59;;;;;;;;;;;14.70;99.90;;;;;;5053410;28;19909;-72
2022/05/20 04:28:25;;;;;;;;;;;14.70;99.90;;;;;;5053169;28;20241;-72
2022/05/20 04:30:53;;;;;;;;;;;14.70;99.90;;;;;;5052577;28;19909;-72
2022/05/20 04:33:19;;;;;;;;;;;14.70;99.90;;;;;;5051226;28;19952;-76
2022/05/20 04:35:44;;;;;;;;;;;14.80;99.90;;;;;;5053355;28;19952;-72
2022/05/20 04:38:10;;;;;;;;;;;14.80;99.90;;;;;;5046349;28;19909;-72
2022/05/20 04:40:35;;;;;;;;;;;14.80;99.90;;;;;;5053162;28;19919;-72
2022/05/20 04:48:29;;;;;;;;;;;15.00;99.90;;;;;;5053005;28;19923;-74
2022/05/20 04:50:55;;;;;;;;;;;15.10;99.90;;;;;;5052915;28;19995;-72
2022/05/20 04:56:05;;;;;;;;;;;15.30;99.90;;;;;;5058579;28;19962;-73
2022/05/20 04:58:30;;;;;;;;;;;15.40;99.90;;;;;;5066656;28;19913;-71
2022/05/20 05:00:58;;;;;;;;;;;15.50;99.90;;;;;;5052307;28;19913;-73
2022/05/20 05:03:24;;;;;;;;;;;15.60;99.90;;;;;;5069899;28;19908;-72
2022/05/20 05:05:49;;;;;;;;;;;15.80;99.90;;;;;;5071853;28;19915;-71
2022/05/20 05:08:16;;;;;;;;;;;15.90;99.90;;;;;;5067414;28;19916;-71
2022/05/20 05:10:42;;;;;;;;;;;16.10;99.90;;;;;;5063814;28;20506;-72
2022/05/20 05:13:09;;;;;;;;;;;16.20;99.90;;;;;;5053154;28;20007;-72
2022/05/20 05:15:35;;;;;;;;;;;16.40;99.90;;;;;;5052605;28;19909;-72
2022/05/20 05:18:11;;;;;;;;;;;16.60;99.90;;;;;;5052476;28;19909;-72
2022/05/20 05:20:40;;;;;;;;;;;16.80;99.90;;;;;;5052945;28;19920;-73
2022/05/20 05:23:05;;;;;;;;;;;17.00;99.90;;;;;;5051015;28;19908;-73
2022/05/20 05:25:33;;;;;;;;;;;17.10;99.90;;;;;;5057418;28;19971;-72
2022/05/20 05:27:59;;;;;;;;;;;17.10;99.90;;;;;;5071438;28;19912;-77
2022/05/20 05:30:24;;;;;;;;;;;17.10;99.90;;;;;;5071692;28;19908;-74
2022/05/20 05:32:50;;;;;;;;;;;17.20;99.90;;;;;;5070852;28;19915;-72
2022/05/20 05:35:17;;;;;;;;;;;17.60;99.90;;;;;;5071054;28;20309;-73
2022/05/20 05:37:43;;;;;;;;;;;17.60;99.90;;;;;;5071192;28;19915;-73
2022/05/20 05:40:11;;;;;;;;;;;17.70;99.90;;;;;;5070789;28;19913;-73
2022/05/20 05:42:36;;;;;;;;;;;18.40;99.90;;;;;;5070336;28;20327;-73
2022/05/20 05:45:03;;;;;;;;;;;19.50;99.90;;;;;;5070655;28;19908;-71
2022/05/20 05:47:29;;;;;;;;;;;19.90;99.90;;;;;;5070853;28;19929;-73
2022/05/20 05:49:54;;;;;;;;;;;19.20;99.90;;;;;;5070925;28;19917;-71
2022/05/20 05:52:19;;;;;;;;;;;18.70;99.90;;;;;;5054663;28;19909;-71
2022/05/20 05:54:45;;;;;;;;;;;18.80;99.90;;;;;;5061072;28;19974;-72
2022/05/20 05:57:10;;;;;;;;;;;18.80;99.90;;;;;;5071193;28;19908;-71
2022/05/20 05:59:37;;;;;;;;;;;19.00;99.90;;;;;;5070897;28;19913;-71
2022/05/20 06:02:03;;;;;;;;;;;19.10;99.90;;;;;;5070225;28;19913;-71
2022/05/20 06:04:29;;;;;;;;;;;19.20;99.90;;;;;;5070263;28;20492;-72
2022/05/20 06:06:54;;;;;;;;;;;19.40;99.90;;;;;;5065958;28;19909;-72
2022/05/20 06:09:20;;;;;;;;;;;19.40;99.90;;;;;;5070848;28;19940;-73
2022/05/20 06:11:46;;;;;;;;;;;19.30;99.90;;;;;;5070416;28;19916;-73
2022/05/20 06:14:11;;;;;;;;;;;19.80;99.90;;;;;;5070354;28;19909;-72
2022/05/20 06:16:39;;;;;;;;;;;21.00;99.90;;;;;;5070926;28;19913;-71
2022/05/20 06:19:05;;;;;;;;;;;21.90;99.90;;;;;;5070766;28;19931;-71
2022/05/20 06:21:30;;;;;;;;;;;22.50;99.90;;;;;;5061064;28;20366;-72
2022/05/20 06:23:56;;;;;;;;;;;22.50;99.90;;;;;;5050671;28;19916;-72
2022/05/20 06:26:21;;;;;;;;;;;22.00;99.90;;;;;;5051717;28;19978;-73
2022/05/20 06:28:47;;;;;;;;;;;21.30;99.90;;;;;;5051679;28;19966;-71
2022/05/20 06:31:13;;;;;;;;;;;21.00;99.90;;;;;;5051323;28;19916;-71
2022/05/20 06:33:39;;;;;;;;;;;21.00;99.90;;;;;;5050646;28;19913;-72
2022/05/20 06:41:32;;;;;;;;;;;21.50;99.90;;;;;;5050801;28;19967;-71
2022/05/20 06:43:58;;;;;;;;;;;21.90;99.90;;;;;;5047345;28;19948;-72
2022/05/20 06:46:24;;;;;;;;;;;22.10;99.90;;;;;;5060903;28;19912;-71
2022/05/20 06:48:51;;;;;;;;;;;23.50;99.90;;;;;;5050893;28;19917;-72
2022/05/20 06:51:18;;;;;;;;;;;23.80;99.90;;;;;;5048317;28;20328;-72
2022/05/20 06:53:44;;;;;;;;;;;23.40;99.90;;;;;;5051139;28;20286;-71
2022/05/20 06:56:10;;;;;;;;;;;22.80;99.90;;;;;;5043173;28;19909;-71
2022/05/20 06:58:36;;;;;;;;;;;23.60;99.90;;;;;;5055128;28;19913;-71
2022/05/20 07:01:03;;;;;;;;;;;24.80;98.00;;;;;;5052819;28;19913;-72
2022/05/20 07:03:28;;;;;;;;;;;25.40;97.40;;;;;;5053768;28;20246;-71
2022/05/20 07:05:54;;;;;;;;;;;25.70;95.90;;;;;;5047689;28;19912;-73
2022/05/20 07:08:19;;;;;;;;;;;26.10;96.10;;;;;;5064334;28;19915;-72
2022/05/20 07:10:45;;;;;;;;;;;26.10;94.10;;;;;;5054351;28;20294;-72
2022/05/20 07:13:11;;;;;;;;;;;26.10;93.80;;;;;;5052493;28;19909;-72
2022/05/20 07:15:36;;;;;;;;;;;26.20;92.20;;;;;;5058381;28;19909;-72
2022/05/20 07:18:02;;;;;;;;;;;26.50;92.70;;;;;;5053919;28;19931;-71
2022/05/20 07:20:27;;;;;;;;;;;27.00;88.90;;;;;;5053910;28;19943;-72
2022/05/20 07:22:53;;;;;;;;;;;26.50;90.70;;;;;;5053664;28;19909;-73
2022/05/20 07:25:19;;;;;;;;;;;27.10;90.10;;;;;;5053823;28;19919;-72
2022/05/20 07:27:45;;;;;;;;;;;27.30;88.30;;;;;;5054427;28;20003;-72
2022/05/20 07:30:11;;;;;;;;;;;27.40;90.60;;;;;;5054234;28;20050;-72
2022/05/20 07:32:37;;;;;;;;;;;28.00;90.20;;;;;;5054693;28;20017;-72
2022/05/20 07:35:02;;;;;;;;;;;27.80;86.80;;;;;;5054168;28;19952;-72
2022/05/20 07:37:28;;;;;;;;;;;27.70;87.10;;;;;;5048163;28;19965;-72
2022/05/20 07:39:53;;;;;;;;;;;27.60;86.30;;;;;;5054069;28;19912;-73
2022/05/20 07:42:19;;;;;;;;;;;27.70;86.40;;;;;;5052298;28;19908;-72
2022/05/20 07:44:44;;;;;;;;;;;27.90;86.20;;;;;;5053760;28;20455;-72
2022/05/20 07:47:10;;;;;;;;;;;28.20;86.60;;;;;;5053406;28;19955;-73
2022/05/20 07:49:35;;;;;;;;;;;28.50;84.50;;;;;;5053857;28;19988;-72
2022/05/20 07:52:03;;;;;;;;;;;28.70;85.30;;;;;;5057264;28;19966;-72
2022/05/20 07:54:32;;;;;;;;;;;29.20;80.90;;;;;;5054169;28;19996;-72
2022/05/20 07:57:00;;;;;;;;;;;29.30;85.70;;;;;;5053990;28;19958;-72
2022/05/20 07:59:31;;;;;;;;;;;29.00;80.30;;;;;;5065574;28;19923;-72
2022/05/20 08:01:59;;;;;;;;;;;29.00;85.90;;;;;;5053432;28;20362;-72
2022/05/20 08:07:11;;;;;;;;;;;29.80;82.40;;;;;;5056066;28;19915;-72
2022/05/20 08:09:37;;;;;;;;;;;30.00;81.00;;;;;;5053590;28;19915;-72
2022/05/20 08:12:03;;;;;;;;;;;30.20;77.80;;;;;;5051656;28;19917;-73
2022/05/20 08:14:28;;;;;;;;;;;30.00;79.90;;;;;;5054297;28;20297;-73
2022/05/20 08:17:01;;;;;;;;;;;29.00;83.60;;;;;;5058101;28;19908;-73
2022/05/20 08:19:27;;;;;;;;;;;30.00;76.30;;;;;;5053133;28;19959;-73
2022/05/20 08:21:52;;;;;;;;;;;30.40;76.30;;;;;;5053691;28;19909;-73
2022/05/20 08:24:18;;;;;;;;;;;30.70;77.20;;;;;;5060357;28;19913;-73
2022/05/20 08:26:43;;;;;;;;;;;30.70;80.20;;;;;;5053197;28;20035;-73
2022/05/20 08:29:12;;;;;;;;;;;31.00;76.90;;;;;;5053143;28;19908;-73
2022/05/20 08:31:38;;;;;;;;;;;31.10;71.90;;;;;;5052191;28;19952;-73
2022/05/20 08:34:04;;;;;;;;;;;31.50;77.70;;;;;;5052276;28;19909;-74
2022/05/20 08:36:29;;;;;;;;;;;31.60;75.60;;;;;;5053333;28;19909;-74
2022/05/20 08:38:55;;;;;;;;;;;31.80;75.40;;;;;;5053006;28;20436;-73
2022/05/20 08:41:33;;;;;;;;;;;31.70;72.10;;;;;;5051674;28;19912;-73
2022/05/20 08:43:59;;;;;;;;;;;31.10;79.70;;;;;;5047089;28;19913;-73
2022/05/20 08:46:25;;;;;;;;;;;31.40;71.30;;;;;;5053194;28;19909;-73
2022/05/20 08:48:55;;;;;;;;;;;31.60;71.50;;;;;;5052761;28;19923;-73
2022/05/20 08:51:21;;;;;;;;;;;32.20;69.00;;;;;;5052241;28;19913;-73
2022/05/20 08:53:48;;;;;;;;;;;32.00;74.10;;;;;;5050666;28;20277;-74
2022/05/20 08:56:14;;;;;;;;;;;33.00;70.20;;;;;;5052540;28;19996;-74
2022/05/20 08:58:45;;;;;;;;;;;32.20;69.30;;;;;;5052529;28;20037;-74
2022/05/20 09:01:10;;;;;;;;;;;32.90;72.40;;;;;;5052349;28;20362;-74
2022/05/20 09:03:36;;;;;;;;;;;32.70;70.00;;;;;;5050821;28;19955;-74
2022/05/20 09:06:03;;;;;;;;;;;33.00;66.30;;;;;;5054056;28;19937;-74
2022/05/20 09:08:28;;;;;;;;;;;32.50;68.50;;;;;;5052177;28;19912;-73
2022/05/20 09:10:55;;;;;;;;;;;33.10;64.20;;;;;;5052359;28;20427;-73
2022/05/20 09:16:18;;;;;;;;;;;32.30;67.70;;;;;;5057352;28;20002;-74
2022/05/20 09:18:48;;;;;;;;;;;31.20;68.60;;;;;;5070632;28;20389;-74
2022/05/20 09:21:38;;;;;;;;;;;31.30;68.60;;;;;;5064096;28;20007;-74
2022/05/20 09:24:05;;;;;;;;;;;31.60;66.10;;;;;;5045226;28;19958;-73
2022/05/20 09:26:33;;;;;;;;;;;31.80;70.90;;;;;;5052279;28;19915;-74
2022/05/20 09:29:17;;;;;;;;;;;32.60;69.80;;;;;;5051920;28;20263;-74
2022/05/20 09:31:45;;;;;;;;;;;32.80;68.30;;;;;;5051406;28;20430;-74
2022/05/20 09:34:13;;;;;;;;;;;32.80;70.00;;;;;;5051085;28;19959;-74
2022/05/20 09:36:45;;;;;;;;;;;32.70;62.30;;;;;;5051861;28;20354;-74
2022/05/20 09:39:14;;;;;;;;;;;32.50;66.80;;;;;;5051683;28;20007;-74
2022/05/20 09:41:47;;;;;;;;;;;32.10;64.30;;;;;;5051363;28;19909;-74
2022/05/20 09:44:13;;;;;;;;;;;31.40;66.80;;;;;;5051135;28;19955;-73
2022/05/20 09:46:42;;;;;;;;;;;31.10;66.10;;;;;;5051657;28;19913;-74
2022/05/20 09:49:15;;;;;;;;;;;31.30;65.00;;;;;;5051658;28;19970;-74
2022/05/20 09:51:45;;;;;;;;;;;31.30;64.50;;;;;;5052596;28;19916;-74
2022/05/20 09:54:23;;;;;;;;;;;32.10;64.40;;;;;;5056512;28;19963;-74
2022/05/20 09:57:07;;;;;;;;;;;31.80;64.20;;;;;;5046720;28;19966;-74
2022/05/20 09:59:38;;;;;;;;;;;31.70;65.50;;;;;;5051711;28;19913;-74
2022/05/20 10:02:06;;;;;;;;;;;32.80;62.60;;;;;;5049190;28;19908;-74
2022/05/20 10:04:37;;;;;;;;;;;33.40;64.60;;;;;;5050881;28;19909;-74
2022/05/20 10:07:04;;;;;;;;;;;33.40;60.50;;;;;;5055963;28;20341;-73
2022/05/20 10:09:39;;;;;;;;;;;32.20;64.90;;;;;;5051809;28;19928;-73
2022/05/20 10:12:08;;;;;;;;;;;31.80;59.20;;;;;;5051333;28;19916;-73
2022/05/20 10:14:49;;;;;;;;;;;32.60;59.20;;;;;;5051689;28;19916;-74
2022/05/20 10:17:27;;;;;;;;;;;32.70;60.10;;;;;;5045543;28;20317;-73
2022/05/20 10:19:57;;;;;;;;;;;33.20;59.30;;;;;;5051083;28;19913;-74
2022/05/20 10:22:23;;;;;;;;;;;33.00;56.20;;;;;;5050847;28;20053;-73
2022/05/20 10:24:57;;;;;;;;;;;32.80;60.10;;;;;;5050350;28;20382;-74
2022/05/20 10:27:34;;;;;;;;;;;33.60;58.80;;;;;;5051184;28;19951;-73
2022/05/20 10:33:15;;;;;;;;;;;32.70;56.20;;;;;;5053806;28;19970;-75
2022/05/20 10:35:40;;;;;;;;;;;32.70;58.60;;;;;;5055618;28;19955;-75
2022/05/20 10:38:06;;;;;;;;;;;32.60;55.20;;;;;;5055565;28;19912;-75
2022/05/20 10:40:43;;;;;;;;;;;33.00;57.10;;;;;;5055436;28;19916;-75
2022/05/20 10:43:27;;;;;;;;;;;32.50;57.50;;;;;;5052541;28;19916;-75
2022/05/20 10:48:51;;;;;;;;;;;33.10;58.20;;;;;;5054593;28;19979;-75
2022/05/20 10:51:17;;;;;;;;;;;33.10;56.40;;;;;;5055779;28;20383;-75
2022/05/20 10:53:55;;;;;;;;;;;33.80;60.00;;;;;;5058677;28;20047;-75
2022/05/20 10:56:26;;;;;;;;;;;32.90;57.60;;;;;;5054582;28;20427;-74
2022/05/20 10:58:56;;;;;;;;;;;32.60;57.80;;;;;;5067096;28;20357;-73
2022/05/20 11:01:31;;;;;;;;;;;33.00;59.10;;;;;;5073224;28;20162;-73
2022/05/20 11:04:15;;;;;;;;;;;32.50;56.00;;;;;;5072402;28;19916;-74
2022/05/20 11:06:41;;;;;;;;;;;32.60;58.50;;;;;;5056736;28;19951;-73
2022/05/20 11:09:08;;;;;;;;;;;32.70;56.40;;;;;;5054124;28;19948;-75
2022/05/20 11:11:45;;;;;;;;;;;33.10;56.00;;;;;;5054245;28;19959;-72
2022/05/20 11:14:29;;;;;;;;;;;32.80;55.00;;;;;;5047572;28;19912;-73
2022/05/20 11:17:14;;;;;;;;;;;33.50;56.80;;;;;;5062077;28;19909;-73
2022/05/20 11:19:45;;;;;;;;;;;33.10;53.10;;;;;;5050352;28;19917;-73
2022/05/20 11:22:29;;;;;;;;;;;33.30;54.70;;;;;;5053230;28;19944;-74
2022/05/20 11:24:55;;;;;;;;;;;32.90;57.40;;;;;;5053147;28;19915;-74
2022/05/20 11:27:26;;;;;;;;;;;33.90;59.60;;;;;;5054400;28;20007;-73
2022/05/20 11:29:53;;;;;;;;;;;33.90;56.50;;;;;;5053984;28;20394;-73
2022/05/20 11:32:32;;;;;;;;;;;34.00;54.40;;;;;;5053613;28;19948;-74
2022/05/20 11:35:01;;;;;;;;;;;33.60;55.50;;;;;;5053432;28;19935;-74
2022/05/20 11:37:35;;;;;;;;;;;34.20;53.70;;;;;;5054407;28;19979;-74
2022/05/20 11:40:15;;;;;;;;;;;33.40;55.00;;;;;;5054640;28;20286;-74
2022/05/20 11:43:00;;;;;;;;;;;33.70;56.80;;;;;;5053547;28;20251;-74
2022/05/20 11:45:25;;;;;;;;;;;33.80;58.30;;;;;;5053132;28;19928;-72
2022/05/20 11:48:09;;;;;;;;;;;34.30;56.40;;;;;;5053868;28;19932;-72
2022/05/20 11:50:35;;;;;;;;;;;33.30;60.80;;;;;;5053799;28;19917;-72
2022/05/20 11:53:08;;;;;;;;;;;34.00;57.50;;;;;;5052562;28;20011;-72
2022/05/20 11:55:40;;;;;;;;;;;33.90;56.30;;;;;;5053522;28;19956;-73
2022/05/20 11:58:11;;;;;;;;;;;34.20;54.20;;;;;;5053943;28;20007;-73
2022/05/20 12:00:40;;;;;;;;;;;33.80;54.40;;;;;;5052622;28;19913;-73
2022/05/20 12:03:16;;;;;;;;;;;34.00;54.10;;;;;;5057662;28;19913;-73
2022/05/20 12:05:43;;;;;;;;;;;33.30;55.30;;;;;;5054284;28;20575;-72
2022/05/20 12:08:28;;;;;;;;;;;33.50;53.70;;;;;;5054930;28;19909;-73
2022/05/20 12:10:54;;;;;;;;;;;33.30;56.90;;;;;;5053051;28;19909;-72
2022/05/20 12:13:22;;;;;;;;;;;33.00;56.40;;;;;;5050693;28;20321;-72
2022/05/20 12:15:48;;;;;;;;;;;33.20;54.40;;;;;;5055118;28;19991;-72
2022/05/20 12:24:11;;;;;;;;;;;33.10;53.40;;;;;;5053175;28;19909;-72
2022/05/20 12:24:15;;;;;;;;;;;34.20;52.30;;;;;;5057981;28;20355;-72
2022/05/20 12:26:43;;;;;;;;;;;34.80;50.10;;;;;;5047493;28;19932;-72
2022/05/20 12:29:45;;;;;;;;;;;35.50;51.50;;;;;;5052916;28;19913;-74
2022/05/20 12:32:16;;;;;;;;;;;36.30;49.70;;;;;;5049973;28;20451;-72
2022/05/20 12:34:52;;;;;;;;;;;36.70;48.40;;;;;;5048646;28;19967;-72
2022/05/20 12:37:50;;;;;;;;;;;37.80;45.60;;;;;;5052740;28;20008;-72
2022/05/20 12:40:24;;;;;;;;;;;38.60;43.80;;;;;;5048202;28;19912;-72
2022/05/20 12:42:58;;;;;;;;;;;39.30;44.20;;;;;;5071390;28;19908;-72
2022/05/20 12:45:24;;;;;;;;;;;38.20;45.10;;;;;;5071413;28;19916;-72
2022/05/20 12:47:50;;;;;;;;;;;38.40;46.50;;;;;;5053652;28;19916;-72
2022/05/20 12:50:15;;;;;;;;;;;38.20;45.00;;;;;;5072303;28;20007;-72
2022/05/20 12:52:49;;;;;;;;;;;38.60;45.80;;;;;;5056221;28;19908;-78
2022/05/20 12:55:33;;;;;;;;;;;39.20;43.70;;;;;;5060280;28;20355;-73
2022/05/20 12:58:01;;;;;;;;;;;39.10;50.10;;;;;;5072122;28;19918;-72
2022/05/20 13:00:36;;;;;;;;;;;38.50;41.70;;;;;;5071798;28;19913;-72
2022/05/20 13:03:08;;;;;;;;;;;38.20;45.20;;;;;;5070911;28;20381;-73
2022/05/20 13:05:47;;;;;;;;;;;38.90;43.00;;;;;;5067989;28;19954;-73
2022/05/20 13:08:18;;;;;;;;;;;39.00;45.40;;;;;;5063544;28;20411;-72
2022/05/20 13:10:44;;;;;;;;;;;38.40;44.50;;;;;;5046437;28;19996;-72
2022/05/20 13:13:11;;;;;;;;;;;38.30;44.80;;;;;;5048622;28;20344;-73
2022/05/20 13:15:44;;;;;;;;;;;38.70;45.80;;;;;;5050669;28;19931;-72
2022/05/20 13:18:17;;;;;;;;;;;38.90;44.10;;;;;;5046432;28;20381;-73
2022/05/20 13:20:42;;;;;;;;;;;39.40;44.40;;;;;;5051804;28;20370;-73
2022/05/20 13:23:08;;;;;;;;;;;38.60;42.30;;;;;;5054226;28;19958;-73
2022/05/20 13:25:35;;;;;;;;;;;38.70;41.20;;;;;;5051024;28;19921;-73
2022/05/20 13:28:01;;;;;;;;;;;38.40;44.30;;;;;;5051696;28;19909;-73
2022/05/20 13:30:30;;;;;;;;;;;38.90;44.00;;;;;;5051700;28;19909;-73
2022/05/20 13:33:03;;;;;;;;;;;38.90;44.60;;;;;;5050948;28;19909;-73
2022/05/20 13:35:29;;;;;;;;;;;38.70;44.30;;;;;;5051496;28;19958;-73
2022/05/20 13:37:59;;;;;;;;;;;38.20;43.50;;;;;;5051686;28;19909;-73
2022/05/20 13:40:39;;;;;;;;;;;37.60;42.80;;;;;;5052090;28;20354;-73
2022/05/20 13:43:07;;;;;;;;;;;37.40;43.40;;;;;;5050423;28;19932;-73
2022/05/20 13:51:09;;;;;;;;;;;38.00;43.60;;;;;;5047885;28;20250;-73
2022/05/20 13:53:37;;;;;;;;;;;37.90;45.30;;;;;;5050345;28;19908;-73
2022/05/20 13:56:04;;;;;;;;;;;38.70;42.20;;;;;;5051720;28;20378;-74
2022/05/20 13:58:29;;;;;;;;;;;38.40;42.40;;;;;;5051531;28;19956;-73
2022/05/20 14:00:59;;;;;;;;;;;39.00;42.10;;;;;;5046602;28;19990;-73
2022/05/20 14:03:29;;;;;;;;;;;39.10;42.30;;;;;;5052597;28;19912;-73
2022/05/20 14:05:57;;;;;;;;;;;38.20;44.60;;;;;;5043801;28;19944;-73
2022/05/20 14:08:23;;;;;;;;;;;37.80;44.30;;;;;;5050037;28;19913;-73
2022/05/20 14:10:50;;;;;;;;;;;37.70;45.60;;;;;;5049926;28;19916;-72
2022/05/20 14:13:23;;;;;;;;;;;38.30;45.50;;;;;;5048528;28;19919;-73
2022/05/20 14:15:54;;;;;;;;;;;38.40;43.60;;;;;;5053230;28;19915;-73
2022/05/20 14:18:25;;;;;;;;;;;38.30;44.60;;;;;;5052971;28;19952;-73
2022/05/20 14:21:11;;;;;;;;;;;37.20;46.20;;;;;;5050729;28;19994;-72
2022/05/20 14:23:44;;;;;;;;;;;37.30;45.20;;;;;;5046956;28;19912;-72
2022/05/20 14:26:36;;;;;;;;;;;37.00;43.50;;;;;;5051052;28;19931;-72
2022/05/20 14:29:13;;;;;;;;;;;33.80;50.70;;;;;;5043814;28;19908;-73
2022/05/20 14:31:41;;;;;;;;;;;31.90;53.30;;;;;;5050826;28;19913;-72
2022/05/20 14:34:16;;;;;;;;;;;31.50;55.50;;;;;;5050796;28;20332;-73
2022/05/20 14:36:42;;;;;;;;;;;31.30;60.60;;;;;;5051234;28;19947;-73
2022/05/20 14:39:10;;;;;;;;;;;31.10;55.90;;;;;;5050845;28;20337;-72
2022/05/20 14:41:36;;;;;;;;;;;30.70;56.20;;;;;;5044258;28;19956;-72
2022/05/20 14:44:06;;;;;;;;;;;30.80;55.90;;;;;;5050392;28;19909;-73
2022/05/20 14:49:26;;;;;;;;;;;30.30;53.30;;;;;;5054287;28;19973;-73
2022/05/20 14:51:55;;;;;;;;;;;30.10;55.30;;;;;;5052125;28;20354;-73
2022/05/20 14:54:22;;;;;;;;;;;30.00;55.20;;;;;;5049920;28;19916;-73
2022/05/20 14:56:47;;;;;;;;;;;30.10;56.50;;;;;;5051195;28;20271;-73
2022/05/20 14:59:13;;;;;;;;;;;30.60;54.70;;;;;;5050464;28;19916;-73
2022/05/20 15:01:40;;;;;;;;;;;31.30;55.50;;;;;;5050596;28;19963;-72
2022/05/20 15:04:05;;;;;;;;;;;32.00;54.80;;;;;;5049971;28;19944;-72
2022/05/20 15:06:33;;;;;;;;;;;31.90;52.70;;;;;;5050380;28;19955;-72
2022/05/20 15:08:59;;;;;;;;;;;30.70;56.90;;;;;;5052917;28;20385;-73
2022/05/20 15:11:27;;;;;;;;;;;31.00;57.00;;;;;;5050135;28;19916;-73